sensor_id;sensor_type;location;lat;lon;timestamp;P1;durP1;ratioP1;P2;durP2;ratioP2
74059;SDS011;62414;53.436;8.828;2023-07-31T00:01:15;11.20;;;2.50;;
74059;SDS011;62414;53.436;8.828;2023-07-31T00:03:42;10.80;;;2.80;;
74059;SDS011;62414;53.436;8.828;2023-07-31T00:06:07;6.57;;;2.45;;
74059;SDS011;62414;53.436;8.828;2023-07-31T00:08:33;9.70;;;2.50;;
74059;SDS011;62414;53.436;8.828;2023-07-31T00:10:58;8.20;;;2.30;;
74059;SDS011;62414;53.436;8.828;2023-07-31T00:13:24;9.40;;;2.78;;
74059;SDS011;62414;53.436;8.828;2023-07-31T00:15:49;10.70;;;2.60;;
74059;SDS011;62414;53.436;8.828;2023-07-31T00:18:15;8.80;;;2.50;;
74059;SDS011;62414;53.436;8.828;2023-07-31T00:20:41;10.98;;;2.67;;
74059;SDS011;62414;53.436;8.828;2023-07-31T00:23:07;9.00;;;2.80;;
74059;SDS011;62414;53.436;8.828;2023-07-31T00:25:32;11.93;;;2.80;;
74059;SDS011;62414;53.436;8.828;2023-07-31T00:27:58;8.57;;;2.77;;
74059;SDS011;62414;53.436;8.828;2023-07-31T00:30:25;11.02;;;3.08;;
74059;SDS011;62414;53.436;8.828;2023-07-31T00:32:50;8.63;;;2.90;;
74059;SDS011;62414;53.436;8.828;2023-07-31T00:35:16;10.70;;;3.23;;
74059;SDS011;62414;53.436;8.828;2023-07-31T00:37:43;10.13;;;2.97;;
74059;SDS011;62414;53.436;8.828;2023-07-31T00:40:08;7.97;;;2.80;;
74059;SDS011;62414;53.436;8.828;2023-07-31T00:42:34;11.68;;;3.30;;
74059;SDS011;62414;53.436;8.828;2023-07-31T00:44:59;9.50;;;3.10;;
74059;SDS011;62414;53.436;8.828;2023-07-31T00:47:25;10.30;;;3.22;;
74059;SDS011;62414;53.436;8.828;2023-07-31T00:49:51;7.20;;;2.85;;
74059;SDS011;62414;53.436;8.828;2023-07-31T00:52:17;11.40;;;3.20;;
74059;SDS011;62414;53.436;8.828;2023-07-31T00:54:45;9.27;;;3.13;;
74059;SDS011;62414;53.436;8.828;2023-07-31T00:57:10;8.85;;;3.10;;
74059;SDS011;62414;53.436;8.828;2023-07-31T00:59:36;11.77;;;3.30;;
74059;SDS011;62414;53.436;8.828;2023-07-31T01:02:01;11.20;;;3.17;;
74059;SDS011;62414;53.436;8.828;2023-07-31T01:04:27;10.57;;;3.40;;
74059;SDS011;62414;53.436;8.828;2023-07-31T01:06:55;8.93;;;3.30;;
74059;SDS011;62414;53.436;8.828;2023-07-31T01:09:28;10.00;;;3.22;;
74059;SDS011;62414;53.436;8.828;2023-07-31T01:11:56;13.33;;;3.30;;
74059;SDS011;62414;53.436;8.828;2023-07-31T01:14:22;10.57;;;2.97;;
74059;SDS011;62414;53.436;8.828;2023-07-31T01:16:48;9.30;;;2.80;;
74059;SDS011;62414;53.436;8.828;2023-07-31T01:19:13;10.83;;;2.97;;
74059;SDS011;62414;53.436;8.828;2023-07-31T01:21:54;10.52;;;3.67;;
74059;SDS011;62414;53.436;8.828;2023-07-31T01:24:41;9.83;;;3.50;;
74059;SDS011;62414;53.436;8.828;2023-07-31T01:27:20;9.57;;;3.30;;
74059;SDS011;62414;53.436;8.828;2023-07-31T01:29:49;11.75;;;3.50;;
74059;SDS011;62414;53.436;8.828;2023-07-31T01:32:18;9.85;;;3.30;;
74059;SDS011;62414;53.436;8.828;2023-07-31T01:34:44;8.00;;;3.33;;
74059;SDS011;62414;53.436;8.828;2023-07-31T01:37:10;8.80;;;3.07;;
74059;SDS011;62414;53.436;8.828;2023-07-31T01:39:36;11.93;;;3.42;;
74059;SDS011;62414;53.436;8.828;2023-07-31T01:42:02;9.85;;;3.28;;
74059;SDS011;62414;53.436;8.828;2023-07-31T01:44:29;8.43;;;3.37;;
74059;SDS011;62414;53.436;8.828;2023-07-31T01:46:55;11.07;;;3.40;;
74059;SDS011;62414;53.436;8.828;2023-07-31T01:49:20;10.23;;;4.20;;
74059;SDS011;62414;53.436;8.828;2023-07-31T01:51:46;8.75;;;4.00;;
74059;SDS011;62414;53.436;8.828;2023-07-31T01:54:11;10.03;;;3.60;;
74059;SDS011;62414;53.436;8.828;2023-07-31T01:56:37;7.47;;;3.37;;
74059;SDS011;62414;53.436;8.828;2023-07-31T01:59:02;8.57;;;3.60;;
74059;SDS011;62414;53.436;8.828;2023-07-31T02:01:29;9.70;;;3.47;;
74059;SDS011;62414;53.436;8.828;2023-07-31T02:03:54;11.05;;;3.20;;
74059;SDS011;62414;53.436;8.828;2023-07-31T02:06:21;10.17;;;3.20;;
74059;SDS011;62414;53.436;8.828;2023-07-31T02:08:47;7.85;;;3.35;;
74059;SDS011;62414;53.436;8.828;2023-07-31T02:11:12;8.30;;;3.20;;
74059;SDS011;62414;53.436;8.828;2023-07-31T02:13:38;7.13;;;2.97;;
74059;SDS011;62414;53.436;8.828;2023-07-31T02:16:03;7.73;;;3.17;;
74059;SDS011;62414;53.436;8.828;2023-07-31T02:18:30;7.07;;;3.03;;
74059;SDS011;62414;53.436;8.828;2023-07-31T02:20:55;7.53;;;3.17;;
74059;SDS011;62414;53.436;8.828;2023-07-31T02:23:21;8.83;;;2.90;;
74059;SDS011;62414;53.436;8.828;2023-07-31T02:25:46;7.47;;;2.93;;
74059;SDS011;62414;53.436;8.828;2023-07-31T02:28:13;7.20;;;2.85;;
74059;SDS011;62414;53.436;8.828;2023-07-31T02:30:38;6.20;;;2.70;;
74059;SDS011;62414;53.436;8.828;2023-07-31T02:33:04;6.90;;;3.08;;
74059;SDS011;62414;53.436;8.828;2023-07-31T02:35:30;5.90;;;3.00;;
74059;SDS011;62414;53.436;8.828;2023-07-31T02:37:56;6.68;;;3.20;;
74059;SDS011;62414;53.436;8.828;2023-07-31T02:40:21;5.83;;;2.80;;
74059;SDS011;62414;53.436;8.828;2023-07-31T02:42:47;6.28;;;2.97;;
74059;SDS011;62414;53.436;8.828;2023-07-31T02:45:12;7.17;;;2.97;;
74059;SDS011;62414;53.436;8.828;2023-07-31T02:47:38;5.97;;;2.67;;
74059;SDS011;62414;53.436;8.828;2023-07-31T02:50:03;7.60;;;2.97;;
74059;SDS011;62414;53.436;8.828;2023-07-31T02:52:31;4.83;;;2.43;;
74059;SDS011;62414;53.436;8.828;2023-07-31T02:54:57;6.57;;;2.70;;
74059;SDS011;62414;53.436;8.828;2023-07-31T02:57:22;5.82;;;2.70;;
74059;SDS011;62414;53.436;8.828;2023-07-31T02:59:47;7.83;;;2.90;;
74059;SDS011;62414;53.436;8.828;2023-07-31T03:02:13;5.33;;;2.63;;
74059;SDS011;62414;53.436;8.828;2023-07-31T03:04:38;5.95;;;2.58;;
74059;SDS011;62414;53.436;8.828;2023-07-31T03:07:04;6.30;;;2.83;;
74059;SDS011;62414;53.436;8.828;2023-07-31T03:09:31;5.45;;;2.60;;
74059;SDS011;62414;53.436;8.828;2023-07-31T03:11:57;6.60;;;2.40;;
74059;SDS011;62414;53.436;8.828;2023-07-31T03:14:22;5.03;;;2.30;;
74059;SDS011;62414;53.436;8.828;2023-07-31T03:16:48;5.63;;;2.20;;
74059;SDS011;62414;53.436;8.828;2023-07-31T03:19:13;6.50;;;2.40;;
74059;SDS011;62414;53.436;8.828;2023-07-31T03:21:38;5.50;;;2.28;;
74059;SDS011;62414;53.436;8.828;2023-07-31T03:24:04;4.90;;;2.30;;
74059;SDS011;62414;53.436;8.828;2023-07-31T03:26:32;6.20;;;2.30;;
74059;SDS011;62414;53.436;8.828;2023-07-31T03:28:57;4.90;;;2.42;;
74059;SDS011;62414;53.436;8.828;2023-07-31T03:31:23;6.03;;;2.40;;
74059;SDS011;62414;53.436;8.828;2023-07-31T03:33:48;5.70;;;2.53;;
74059;SDS011;62414;53.436;8.828;2023-07-31T03:36:13;7.93;;;2.90;;
74059;SDS011;62414;53.436;8.828;2023-07-31T03:38:39;6.63;;;2.63;;
74059;SDS011;62414;53.436;8.828;2023-07-31T03:41:06;5.35;;;2.70;;
74059;SDS011;62414;53.436;8.828;2023-07-31T03:43:33;6.27;;;2.80;;
74059;SDS011;62414;53.436;8.828;2023-07-31T03:45:58;7.32;;;3.03;;
74059;SDS011;62414;53.436;8.828;2023-07-31T03:48:24;6.07;;;2.97;;
74059;SDS011;62414;53.436;8.828;2023-07-31T03:50:49;7.18;;;3.10;;
74059;SDS011;62414;53.436;8.828;2023-07-31T03:53:15;7.50;;;3.30;;
74059;SDS011;62414;53.436;8.828;2023-07-31T03:55:41;9.68;;;3.42;;
74059;SDS011;62414;53.436;8.828;2023-07-31T03:58:06;7.60;;;3.43;;
74059;SDS011;62414;53.436;8.828;2023-07-31T04:00:33;8.37;;;3.60;;
74059;SDS011;62414;53.436;8.828;2023-07-31T04:02:58;9.18;;;3.83;;
74059;SDS011;62414;53.436;8.828;2023-07-31T04:05:24;7.70;;;3.80;;
74059;SDS011;62414;53.436;8.828;2023-07-31T04:07:49;10.63;;;4.23;;
74059;SDS011;62414;53.436;8.828;2023-07-31T04:10:15;9.60;;;4.70;;
74059;SDS011;62414;53.436;8.828;2023-07-31T04:12:40;8.97;;;4.33;;
74059;SDS011;62414;53.436;8.828;2023-07-31T04:15:06;8.98;;;4.50;;
74059;SDS011;62414;53.436;8.828;2023-07-31T04:17:33;8.50;;;4.20;;
74059;SDS011;62414;53.436;8.828;2023-07-31T04:19:59;8.68;;;4.22;;
74059;SDS011;62414;53.436;8.828;2023-07-31T04:22:24;8.73;;;4.20;;
74059;SDS011;62414;53.436;8.828;2023-07-31T04:24:49;9.27;;;4.13;;
74059;SDS011;62414;53.436;8.828;2023-07-31T04:27:15;8.53;;;4.13;;
74059;SDS011;62414;53.436;8.828;2023-07-31T04:29:40;8.07;;;4.13;;
74059;SDS011;62414;53.436;8.828;2023-07-31T04:32:06;8.70;;;4.27;;
74059;SDS011;62414;53.436;8.828;2023-07-31T04:34:33;7.53;;;4.10;;
74059;SDS011;62414;53.436;8.828;2023-07-31T04:36:58;10.60;;;4.45;;
74059;SDS011;62414;53.436;8.828;2023-07-31T04:39:24;10.23;;;3.93;;
74059;SDS011;62414;53.436;8.828;2023-07-31T04:41:49;9.40;;;3.92;;
74059;SDS011;62414;53.436;8.828;2023-07-31T04:44:15;10.30;;;3.87;;
74059;SDS011;62414;53.436;8.828;2023-07-31T04:46:40;8.70;;;3.77;;
74059;SDS011;62414;53.436;8.828;2023-07-31T04:49:05;9.85;;;3.88;;
74059;SDS011;62414;53.436;8.828;2023-07-31T04:51:32;7.83;;;3.63;;
74059;SDS011;62414;53.436;8.828;2023-07-31T04:53:58;8.85;;;3.75;;
74059;SDS011;62414;53.436;8.828;2023-07-31T04:56:23;8.60;;;3.93;;
74059;SDS011;62414;53.436;8.828;2023-07-31T04:58:49;7.43;;;3.77;;
74059;SDS011;62414;53.436;8.828;2023-07-31T05:01:14;7.37;;;3.50;;
74059;SDS011;62414;53.436;8.828;2023-07-31T05:03:39;7.10;;;3.67;;
74059;SDS011;62414;53.436;8.828;2023-07-31T05:06:05;7.20;;;3.57;;
74059;SDS011;62414;53.436;8.828;2023-07-31T05:08:32;8.83;;;3.63;;
74059;SDS011;62414;53.436;8.828;2023-07-31T05:10:57;7.15;;;3.30;;
74059;SDS011;62414;53.436;8.828;2023-07-31T05:13:22;7.33;;;3.57;;
74059;SDS011;62414;53.436;8.828;2023-07-31T05:15:48;7.93;;;3.90;;
74059;SDS011;62414;53.436;8.828;2023-07-31T05:18:13;8.40;;;3.87;;
74059;SDS011;62414;53.436;8.828;2023-07-31T05:20:39;7.53;;;3.70;;
74059;SDS011;62414;53.436;8.828;2023-07-31T05:23:04;7.22;;;3.55;;
74059;SDS011;62414;53.436;8.828;2023-07-31T05:25:31;7.17;;;3.43;;
74059;SDS011;62414;53.436;8.828;2023-07-31T05:27:57;6.82;;;3.53;;
74059;SDS011;62414;53.436;8.828;2023-07-31T05:30:22;7.43;;;3.43;;
74059;SDS011;62414;53.436;8.828;2023-07-31T05:32:47;7.07;;;3.70;;
74059;SDS011;62414;53.436;8.828;2023-07-31T05:35:13;6.70;;;3.50;;
74059;SDS011;62414;53.436;8.828;2023-07-31T05:37:38;7.43;;;3.90;;
74059;SDS011;62414;53.436;8.828;2023-07-31T05:40:04;7.33;;;3.47;;
74059;SDS011;62414;53.436;8.828;2023-07-31T05:42:32;7.18;;;3.55;;
74059;SDS011;62414;53.436;8.828;2023-07-31T05:44:57;7.13;;;3.72;;
74059;SDS011;62414;53.436;8.828;2023-07-31T05:47:23;7.20;;;3.50;;
74059;SDS011;62414;53.436;8.828;2023-07-31T05:49:48;8.35;;;3.50;;
74059;SDS011;62414;53.436;8.828;2023-07-31T05:52:14;7.53;;;3.80;;
74059;SDS011;62414;53.436;8.828;2023-07-31T05:54:39;7.97;;;3.53;;
74059;SDS011;62414;53.436;8.828;2023-07-31T05:57:05;6.88;;;3.65;;
74059;SDS011;62414;53.436;8.828;2023-07-31T05:59:32;8.03;;;3.70;;
74059;SDS011;62414;53.436;8.828;2023-07-31T06:01:57;7.05;;;3.60;;
74059;SDS011;62414;53.436;8.828;2023-07-31T06:04:23;9.23;;;3.80;;
74059;SDS011;62414;53.436;8.828;2023-07-31T06:06:48;7.27;;;3.50;;
74059;SDS011;62414;53.436;8.828;2023-07-31T06:09:14;6.17;;;3.50;;
74059;SDS011;62414;53.436;8.828;2023-07-31T06:11:39;6.70;;;3.63;;
74059;SDS011;62414;53.436;8.828;2023-07-31T06:14:05;7.90;;;3.63;;
74059;SDS011;62414;53.436;8.828;2023-07-31T06:16:31;8.07;;;3.83;;
74059;SDS011;62414;53.436;8.828;2023-07-31T06:18:57;6.82;;;3.80;;
74059;SDS011;62414;53.436;8.828;2023-07-31T06:21:22;7.07;;;3.50;;
74059;SDS011;62414;53.436;8.828;2023-07-31T06:23:48;7.40;;;3.83;;
74059;SDS011;62414;53.436;8.828;2023-07-31T06:26:13;7.57;;;3.78;;
74059;SDS011;62414;53.436;8.828;2023-07-31T06:28:39;7.40;;;3.83;;
74059;SDS011;62414;53.436;8.828;2023-07-31T06:31:05;7.03;;;4.00;;
74059;SDS011;62414;53.436;8.828;2023-07-31T06:33:31;8.60;;;4.20;;
74059;SDS011;62414;53.436;8.828;2023-07-31T06:35:57;7.30;;;4.18;;
74059;SDS011;62414;53.436;8.828;2023-07-31T06:38:24;7.23;;;3.83;;
74059;SDS011;62414;53.436;8.828;2023-07-31T06:40:50;7.35;;;4.07;;
74059;SDS011;62414;53.436;8.828;2023-07-31T06:43:16;8.67;;;4.50;;
74059;SDS011;62414;53.436;8.828;2023-07-31T06:45:41;7.37;;;4.03;;
74059;SDS011;62414;53.436;8.828;2023-07-31T06:48:06;6.70;;;3.80;;
74059;SDS011;62414;53.436;8.828;2023-07-31T06:50:33;6.57;;;3.80;;
74059;SDS011;62414;53.436;8.828;2023-07-31T06:52:59;7.57;;;3.92;;
74059;SDS011;62414;53.436;8.828;2023-07-31T06:55:25;7.10;;;4.03;;
74059;SDS011;62414;53.436;8.828;2023-07-31T06:57:51;8.75;;;3.67;;
74059;SDS011;62414;53.436;8.828;2023-07-31T07:00:18;6.30;;;3.60;;
74059;SDS011;62414;53.436;8.828;2023-07-31T07:02:44;7.55;;;3.53;;
74059;SDS011;62414;53.436;8.828;2023-07-31T07:05:09;6.17;;;3.50;;
74059;SDS011;62414;53.436;8.828;2023-07-31T07:07:36;5.33;;;3.20;;
74059;SDS011;62414;53.436;8.828;2023-07-31T07:10:02;5.63;;;3.00;;
74059;SDS011;62414;53.436;8.828;2023-07-31T07:12:29;5.50;;;3.08;;
74059;SDS011;62414;53.436;8.828;2023-07-31T07:14:55;5.82;;;3.10;;
74059;SDS011;62414;53.436;8.828;2023-07-31T07:17:21;5.80;;;2.70;;
74059;SDS011;62414;53.436;8.828;2023-07-31T07:19:47;6.87;;;3.40;;
74059;SDS011;62414;53.436;8.828;2023-07-31T07:22:13;5.10;;;2.70;;
74059;SDS011;62414;53.436;8.828;2023-07-31T07:24:40;5.60;;;3.40;;
74059;SDS011;62414;53.436;8.828;2023-07-31T07:27:05;6.45;;;4.07;;
74059;SDS011;62414;53.436;8.828;2023-07-31T07:29:31;5.70;;;3.17;;
74059;SDS011;62414;53.436;8.828;2023-07-31T07:31:56;5.03;;;3.13;;
74059;SDS011;62414;53.436;8.828;2023-07-31T07:34:22;4.97;;;2.70;;
74059;SDS011;62414;53.436;8.828;2023-07-31T07:36:47;5.85;;;3.35;;
74059;SDS011;62414;53.436;8.828;2023-07-31T07:39:13;5.57;;;2.90;;
74059;SDS011;62414;53.436;8.828;2023-07-31T07:41:40;3.87;;;1.63;;
74059;SDS011;62414;53.436;8.828;2023-07-31T07:44:05;3.83;;;1.80;;
74059;SDS011;62414;53.436;8.828;2023-07-31T07:46:30;3.40;;;1.30;;
74059;SDS011;62414;53.436;8.828;2023-07-31T07:48:56;3.05;;;1.40;;
74059;SDS011;62414;53.436;8.828;2023-07-31T07:51:21;3.20;;;1.40;;
74059;SDS011;62414;53.436;8.828;2023-07-31T07:53:47;2.60;;;1.00;;
74059;SDS011;62414;53.436;8.828;2023-07-31T07:56:12;2.60;;;0.90;;
74059;SDS011;62414;53.436;8.828;2023-07-31T07:58:39;3.20;;;0.90;;
74059;SDS011;62414;53.436;8.828;2023-07-31T08:01:04;2.22;;;0.70;;
74059;SDS011;62414;53.436;8.828;2023-07-31T08:03:30;2.73;;;0.93;;
74059;SDS011;62414;53.436;8.828;2023-07-31T08:05:57;2.70;;;0.80;;
74059;SDS011;62414;53.436;8.828;2023-07-31T08:08:23;3.28;;;0.80;;
74059;SDS011;62414;53.436;8.828;2023-07-31T08:10:48;3.47;;;1.30;;
74059;SDS011;62414;53.436;8.828;2023-07-31T08:13:14;2.97;;;0.90;;
74059;SDS011;62414;53.436;8.828;2023-07-31T08:15:42;2.72;;;0.85;;
74059;SDS011;62414;53.436;8.828;2023-07-31T08:18:07;3.87;;;1.17;;
74059;SDS011;62414;53.436;8.828;2023-07-31T08:20:33;3.15;;;0.60;;
74059;SDS011;62414;53.436;8.828;2023-07-31T08:22:58;2.53;;;0.70;;
74059;SDS011;62414;53.436;8.828;2023-07-31T08:25:23;2.30;;;0.67;;
74059;SDS011;62414;53.436;8.828;2023-07-31T08:27:49;3.20;;;0.70;;
74059;SDS011;62414;53.436;8.828;2023-07-31T08:30:14;3.30;;;0.80;;
74059;SDS011;62414;53.436;8.828;2023-07-31T08:32:41;2.37;;;0.70;;
74059;SDS011;62414;53.436;8.828;2023-07-31T08:35:06;2.50;;;0.70;;
74059;SDS011;62414;53.436;8.828;2023-07-31T08:37:32;2.53;;;0.70;;
74059;SDS011;62414;53.436;8.828;2023-07-31T08:39:57;2.60;;;0.50;;
74059;SDS011;62414;53.436;8.828;2023-07-31T08:42:23;2.80;;;0.55;;
74059;SDS011;62414;53.436;8.828;2023-07-31T08:44:48;2.53;;;0.70;;
74059;SDS011;62414;53.436;8.828;2023-07-31T08:47:14;2.92;;;0.50;;
74059;SDS011;62414;53.436;8.828;2023-07-31T08:49:42;2.30;;;0.63;;
74059;SDS011;62414;53.436;8.828;2023-07-31T08:52:08;2.20;;;0.50;;
74059;SDS011;62414;53.436;8.828;2023-07-31T08:54:34;2.15;;;0.50;;
74059;SDS011;62414;53.436;8.828;2023-07-31T08:56:59;2.90;;;0.50;;
74059;SDS011;62414;53.436;8.828;2023-07-31T08:59:25;2.28;;;0.70;;
74059;SDS011;62414;53.436;8.828;2023-07-31T09:01:53;2.37;;;0.60;;
74059;SDS011;62414;53.436;8.828;2023-07-31T09:04:19;2.40;;;0.60;;
74059;SDS011;62414;53.436;8.828;2023-07-31T09:06:46;2.30;;;0.70;;
74059;SDS011;62414;53.436;8.828;2023-07-31T09:09:12;2.50;;;0.70;;
74059;SDS011;62414;53.436;8.828;2023-07-31T09:11:38;3.00;;;0.80;;
74059;SDS011;62414;53.436;8.828;2023-07-31T09:14:03;2.40;;;0.80;;
74059;SDS011;62414;53.436;8.828;2023-07-31T09:16:29;2.47;;;0.85;;
74059;SDS011;62414;53.436;8.828;2023-07-31T09:18:54;3.03;;;0.80;;
74059;SDS011;62414;53.436;8.828;2023-07-31T09:21:20;2.20;;;0.55;;
74059;SDS011;62414;53.436;8.828;2023-07-31T09:23:47;2.03;;;0.53;;
74059;SDS011;62414;53.436;8.828;2023-07-31T09:26:13;2.10;;;0.50;;
74059;SDS011;62414;53.436;8.828;2023-07-31T09:28:54;2.30;;;0.60;;
74059;SDS011;62414;53.436;8.828;2023-07-31T09:31:21;3.10;;;1.00;;
74059;SDS011;62414;53.436;8.828;2023-07-31T09:33:57;3.70;;;1.00;;
74059;SDS011;62414;53.436;8.828;2023-07-31T09:36:22;4.33;;;1.10;;
74059;SDS011;62414;53.436;8.828;2023-07-31T09:38:49;6.40;;;1.77;;
74059;SDS011;62414;53.436;8.828;2023-07-31T09:41:14;13.15;;;4.72;;
74059;SDS011;62414;53.436;8.828;2023-07-31T09:43:40;10.47;;;4.23;;
74059;SDS011;62414;53.436;8.828;2023-07-31T09:46:05;12.68;;;4.40;;
74059;SDS011;62414;53.436;8.828;2023-07-31T09:48:38;14.57;;;5.53;;
74059;SDS011;62414;53.436;8.828;2023-07-31T09:51:04;18.63;;;6.78;;
74059;SDS011;62414;53.436;8.828;2023-07-31T09:53:30;23.13;;;8.43;;
74059;SDS011;62414;53.436;8.828;2023-07-31T09:55:56;22.30;;;8.27;;
74059;SDS011;62414;53.436;8.828;2023-07-31T09:58:23;22.08;;;8.80;;
74059;SDS011;62414;53.436;8.828;2023-07-31T10:00:48;23.57;;;9.07;;
74059;SDS011;62414;53.436;8.828;2023-07-31T10:03:14;30.27;;;10.07;;
74059;SDS011;62414;53.436;8.828;2023-07-31T10:05:40;28.92;;;9.98;;
74059;SDS011;62414;53.436;8.828;2023-07-31T10:08:09;27.15;;;9.95;;
74059;SDS011;62414;53.436;8.828;2023-07-31T10:10:35;24.67;;;9.80;;
74059;SDS011;62414;53.436;8.828;2023-07-31T10:13:02;25.17;;;9.43;;
74059;SDS011;62414;53.436;8.828;2023-07-31T10:15:29;26.50;;;9.32;;
74059;SDS011;62414;53.436;8.828;2023-07-31T10:17:54;27.52;;;9.82;;
74059;SDS011;62414;53.436;8.828;2023-07-31T10:20:20;26.80;;;9.30;;
74059;SDS011;62414;53.436;8.828;2023-07-31T10:22:46;22.17;;;8.27;;
74059;SDS011;62414;53.436;8.828;2023-07-31T10:25:12;23.00;;;8.50;;
74059;SDS011;62414;53.436;8.828;2023-07-31T10:27:38;18.10;;;7.18;;
74059;SDS011;62414;53.436;8.828;2023-07-31T10:30:06;19.77;;;7.30;;
74059;SDS011;62414;53.436;8.828;2023-07-31T10:32:34;18.10;;;7.23;;
74059;SDS011;62414;53.436;8.828;2023-07-31T10:35:00;20.05;;;7.68;;
74059;SDS011;62414;53.436;8.828;2023-07-31T10:37:27;18.60;;;7.50;;
74059;SDS011;62414;53.436;8.828;2023-07-31T10:40:00;15.98;;;6.80;;
74059;SDS011;62414;53.436;8.828;2023-07-31T10:42:29;18.53;;;7.37;;
74059;SDS011;62414;53.436;8.828;2023-07-31T10:44:57;17.27;;;7.32;;
74059;SDS011;62414;53.436;8.828;2023-07-31T10:47:24;17.05;;;7.30;;
74059;SDS011;62414;53.436;8.828;2023-07-31T10:49:49;18.67;;;7.30;;
74059;SDS011;62414;53.436;8.828;2023-07-31T10:52:19;16.80;;;6.90;;
74059;SDS011;62414;53.436;8.828;2023-07-31T10:54:45;17.33;;;6.35;;
74059;SDS011;62414;53.436;8.828;2023-07-31T10:57:18;16.50;;;6.77;;
74059;SDS011;62414;53.436;8.828;2023-07-31T10:59:44;17.48;;;6.78;;
74059;SDS011;62414;53.436;8.828;2023-07-31T11:02:10;16.17;;;5.87;;
74059;SDS011;62414;53.436;8.828;2023-07-31T11:05:05;14.93;;;6.15;;
74059;SDS011;62414;53.436;8.828;2023-07-31T11:07:45;13.98;;;5.63;;
74059;SDS011;62414;53.436;8.828;2023-07-31T11:10:11;12.88;;;5.25;;
74059;SDS011;62414;53.436;8.828;2023-07-31T11:12:40;13.00;;;5.10;;
74059;SDS011;62414;53.436;8.828;2023-07-31T11:15:06;16.10;;;5.75;;
74059;SDS011;62414;53.436;8.828;2023-07-31T11:17:34;16.20;;;5.18;;
74059;SDS011;62414;53.436;8.828;2023-07-31T11:20:03;11.80;;;4.83;;
74059;SDS011;62414;53.436;8.828;2023-07-31T11:22:30;13.27;;;5.20;;
74059;SDS011;62414;53.436;8.828;2023-07-31T11:24:55;10.10;;;5.03;;
74059;SDS011;62414;53.436;8.828;2023-07-31T11:27:21;12.93;;;5.00;;
74059;SDS011;62414;53.436;8.828;2023-07-31T11:29:46;13.50;;;4.60;;
74059;SDS011;62414;53.436;8.828;2023-07-31T11:32:15;10.75;;;4.03;;
74059;SDS011;62414;53.436;8.828;2023-07-31T11:34:52;10.95;;;4.68;;
74059;SDS011;62414;53.436;8.828;2023-07-31T11:37:17;9.30;;;4.27;;
74059;SDS011;62414;53.436;8.828;2023-07-31T11:39:42;9.73;;;4.25;;
74059;SDS011;62414;53.436;8.828;2023-07-31T11:42:08;9.63;;;4.33;;
74059;SDS011;62414;53.436;8.828;2023-07-31T11:44:37;8.33;;;3.70;;
74059;SDS011;62414;53.436;8.828;2023-07-31T11:47:03;8.25;;;3.67;;
74059;SDS011;62414;53.436;8.828;2023-07-31T11:49:29;9.40;;;3.97;;
74059;SDS011;62414;53.436;8.828;2023-07-31T11:51:56;9.30;;;3.95;;
74059;SDS011;62414;53.436;8.828;2023-07-31T11:54:21;11.45;;;4.03;;
74059;SDS011;62414;53.436;8.828;2023-07-31T11:56:47;6.67;;;3.37;;
74059;SDS011;62414;53.436;8.828;2023-07-31T11:59:12;9.10;;;4.10;;
74059;SDS011;62414;53.436;8.828;2023-07-31T12:01:38;9.13;;;4.00;;
74059;SDS011;62414;53.436;8.828;2023-07-31T12:04:04;8.53;;;3.67;;
74059;SDS011;62414;53.436;8.828;2023-07-31T12:06:32;8.30;;;3.30;;
74059;SDS011;62414;53.436;8.828;2023-07-31T12:09:01;8.98;;;3.60;;
74059;SDS011;62414;53.436;8.828;2023-07-31T12:11:27;8.20;;;3.10;;
74059;SDS011;62414;53.436;8.828;2023-07-31T12:13:53;6.47;;;3.03;;
74059;SDS011;62414;53.436;8.828;2023-07-31T12:16:18;10.50;;;3.70;;
74059;SDS011;62414;53.436;8.828;2023-07-31T12:18:44;8.67;;;3.17;;
74059;SDS011;62414;53.436;8.828;2023-07-31T12:21:09;7.28;;;3.10;;
74059;SDS011;62414;53.436;8.828;2023-07-31T12:23:35;7.13;;;3.03;;
74059;SDS011;62414;53.436;8.828;2023-07-31T12:26:04;5.57;;;2.85;;
74059;SDS011;62414;53.436;8.828;2023-07-31T12:28:30;6.57;;;3.00;;
74059;SDS011;62414;53.436;8.828;2023-07-31T12:31:00;5.38;;;2.97;;
74059;SDS011;62414;53.436;8.828;2023-07-31T12:33:30;5.27;;;2.40;;
74059;SDS011;62414;53.436;8.828;2023-07-31T12:35:56;5.35;;;2.20;;
74059;SDS011;62414;53.436;8.828;2023-07-31T12:38:22;5.10;;;2.60;;
74059;SDS011;62414;53.436;8.828;2023-07-31T12:40:47;3.97;;;2.07;;
74059;SDS011;62414;53.436;8.828;2023-07-31T12:43:14;3.73;;;1.70;;
74059;SDS011;62414;53.436;8.828;2023-07-31T12:45:41;3.35;;;1.60;;
74059;SDS011;62414;53.436;8.828;2023-07-31T12:48:06;4.33;;;1.60;;
74059;SDS011;62414;53.436;8.828;2023-07-31T12:50:31;3.50;;;1.50;;
74059;SDS011;62414;53.436;8.828;2023-07-31T12:52:57;4.03;;;1.25;;
74059;SDS011;62414;53.436;8.828;2023-07-31T12:55:23;3.47;;;1.23;;
74059;SDS011;62414;53.436;8.828;2023-07-31T12:57:48;2.80;;;1.10;;
74059;SDS011;62414;53.436;8.828;2023-07-31T13:00:15;3.63;;;1.40;;
74059;SDS011;62414;53.436;8.828;2023-07-31T13:02:42;2.88;;;1.50;;
74059;SDS011;62414;53.436;8.828;2023-07-31T13:05:08;3.53;;;2.00;;
74059;SDS011;62414;53.436;8.828;2023-07-31T13:07:33;3.33;;;1.48;;
74059;SDS011;62414;53.436;8.828;2023-07-31T13:09:59;3.63;;;1.30;;
74059;SDS011;62414;53.436;8.828;2023-07-31T13:12:24;4.93;;;1.30;;
74059;SDS011;62414;53.436;8.828;2023-07-31T13:14:50;6.57;;;1.37;;
74059;SDS011;62414;53.436;8.828;2023-07-31T13:17:17;8.52;;;1.70;;
74059;SDS011;62414;53.436;8.828;2023-07-31T13:19:42;3.97;;;1.50;;
74059;SDS011;62414;53.436;8.828;2023-07-31T13:22:08;4.57;;;2.10;;
74059;SDS011;62414;53.436;8.828;2023-07-31T13:24:33;4.43;;;1.90;;
74059;SDS011;62414;53.436;8.828;2023-07-31T13:26:59;3.42;;;1.63;;
74059;SDS011;62414;53.436;8.828;2023-07-31T13:29:24;3.20;;;1.20;;
74059;SDS011;62414;53.436;8.828;2023-07-31T13:31:50;3.50;;;1.70;;
74059;SDS011;62414;53.436;8.828;2023-07-31T13:34:16;2.88;;;1.33;;
74059;SDS011;62414;53.436;8.828;2023-07-31T13:36:42;4.27;;;1.77;;
74059;SDS011;62414;53.436;8.828;2023-07-31T13:39:07;3.53;;;1.80;;
74059;SDS011;62414;53.436;8.828;2023-07-31T13:41:33;4.53;;;2.00;;
74059;SDS011;62414;53.436;8.828;2023-07-31T13:43:58;4.40;;;2.43;;
74059;SDS011;62414;53.436;8.828;2023-07-31T13:46:24;5.10;;;2.90;;
74059;SDS011;62414;53.436;8.828;2023-07-31T13:48:49;6.13;;;3.20;;
74059;SDS011;62414;53.436;8.828;2023-07-31T13:51:16;6.60;;;3.10;;
74059;SDS011;62414;53.436;8.828;2023-07-31T13:53:41;6.18;;;3.38;;
74059;SDS011;62414;53.436;8.828;2023-07-31T13:56:06;4.57;;;2.80;;
74059;SDS011;62414;53.436;8.828;2023-07-31T13:58:33;6.03;;;3.00;;
74059;SDS011;62414;53.436;8.828;2023-07-31T14:00:58;7.82;;;2.97;;
74059;SDS011;62414;53.436;8.828;2023-07-31T14:03:24;6.67;;;3.00;;
74059;SDS011;62414;53.436;8.828;2023-07-31T14:05:49;5.50;;;2.80;;
74059;SDS011;62414;53.436;8.828;2023-07-31T14:08:16;4.80;;;2.63;;
74059;SDS011;62414;53.436;8.828;2023-07-31T14:10:42;4.53;;;2.50;;
74059;SDS011;62414;53.436;8.828;2023-07-31T14:13:07;4.43;;;2.50;;
74059;SDS011;62414;53.436;8.828;2023-07-31T14:15:32;4.33;;;2.50;;
74059;SDS011;62414;53.436;8.828;2023-07-31T14:17:58;4.15;;;2.15;;
74059;SDS011;62414;53.436;8.828;2023-07-31T14:20:23;4.37;;;2.27;;
74059;SDS011;62414;53.436;8.828;2023-07-31T14:22:49;4.40;;;2.47;;
74059;SDS011;62414;53.436;8.828;2023-07-31T14:25:15;3.70;;;2.03;;
74059;SDS011;62414;53.436;8.828;2023-07-31T14:27:41;5.03;;;2.30;;
74059;SDS011;62414;53.436;8.828;2023-07-31T14:30:07;5.72;;;2.25;;
74059;SDS011;62414;53.436;8.828;2023-07-31T14:32:33;3.95;;;2.08;;
74059;SDS011;62414;53.436;8.828;2023-07-31T14:34:58;4.60;;;1.97;;
74059;SDS011;62414;53.436;8.828;2023-07-31T14:37:25;4.80;;;2.00;;
74059;SDS011;62414;53.436;8.828;2023-07-31T14:39:51;5.15;;;2.30;;